sensor_id;sensor_type;location;lat;lon;timestamp;P1;durP1;ratioP1;P2;durP2;ratioP2
56073;SDS011;41950;55.840;37.442;2022-09-14T00:00:59;6.18;;;5.07;;
56073;SDS011;41950;55.840;37.442;2022-09-14T00:03:25;5.88;;;5.38;;
56073;SDS011;41950;55.840;37.442;2022-09-14T00:05:51;6.95;;;5.78;;
56073;SDS011;41950;55.840;37.442;2022-09-14T00:08:16;5.82;;;5.20;;
56073;SDS011;41950;55.840;37.442;2022-09-14T00:10:43;5.97;;;5.38;;
56073;SDS011;41950;55.840;37.442;2022-09-14T00:13:13;5.65;;;5.07;;
56073;SDS011;41950;55.840;37.442;2022-09-14T00:15:40;6.20;;;5.60;;
56073;SDS011;41950;55.840;37.442;2022-09-14T00:18:08;5.78;;;5.18;;
56073;SDS011;41950;55.840;37.442;2022-09-14T00:20:35;5.85;;;5.35;;
56073;SDS011;41950;55.840;37.442;2022-09-14T00:23:02;5.45;;;4.95;;
56073;SDS011;41950;55.840;37.442;2022-09-14T00:25:28;5.43;;;4.93;;
56073;SDS011;41950;55.840;37.442;2022-09-14T00:27:54;5.75;;;5.25;;
56073;SDS011;41950;55.840;37.442;2022-09-14T00:30:21;6.10;;;5.50;;
56073;SDS011;41950;55.840;37.442;2022-09-14T00:32:48;5.35;;;4.85;;
56073;SDS011;41950;55.840;37.442;2022-09-14T00:35:14;5.45;;;4.95;;
56073;SDS011;41950;55.840;37.442;2022-09-14T00:37:40;5.00;;;4.60;;
56073;SDS011;41950;55.840;37.442;2022-09-14T00:40:06;5.63;;;4.60;;
56073;SDS011;41950;55.840;37.442;2022-09-14T00:42:33;4.85;;;4.45;;
56073;SDS011;41950;55.840;37.442;2022-09-14T00:45:00;4.82;;;4.43;;
56073;SDS011;41950;55.840;37.442;2022-09-14T00:47:32;5.25;;;4.50;;
56073;SDS011;41950;55.840;37.442;2022-09-14T00:49:58;5.90;;;5.30;;
56073;SDS011;41950;55.840;37.442;2022-09-14T00:52:29;4.68;;;4.28;;
56073;SDS011;41950;55.840;37.442;2022-09-14T00:55:11;5.72;;;4.72;;
56073;SDS011;41950;55.840;37.442;2022-09-14T00:57:48;6.80;;;5.20;;
56073;SDS011;41950;55.840;37.442;2022-09-14T01:00:19;5.50;;;4.85;;
56073;SDS011;41950;55.840;37.442;2022-09-14T01:02:47;5.40;;;4.90;;
56073;SDS011;41950;55.840;37.442;2022-09-14T01:05:13;5.88;;;5.30;;
56073;SDS011;41950;55.840;37.442;2022-09-14T01:16:21;6.00;;;5.40;;
56073;SDS011;41950;55.840;37.442;2022-09-14T01:18:56;5.82;;;5.32;;
56073;SDS011;41950;55.840;37.442;2022-09-14T01:21:34;6.38;;;5.72;;
56073;SDS011;41950;55.840;37.442;2022-09-14T01:24:17;6.07;;;5.30;;
56073;SDS011;41950;55.840;37.442;2022-09-14T01:29:31;6.30;;;5.20;;
56073;SDS011;41950;55.840;37.442;2022-09-14T01:37:03;6.07;;;5.57;;
56073;SDS011;41950;55.840;37.442;2022-09-14T01:39:38;6.07;;;5.47;;
56073;SDS011;41950;55.840;37.442;2022-09-14T01:42:09;6.03;;;5.53;;
56073;SDS011;41950;55.840;37.442;2022-09-14T01:44:37;5.20;;;4.70;;
56073;SDS011;41950;55.840;37.442;2022-09-14T01:47:18;6.30;;;5.70;;
56073;SDS011;41950;55.840;37.442;2022-09-14T01:49:54;6.18;;;5.57;;
56073;SDS011;41950;55.840;37.442;2022-09-14T01:52:26;6.10;;;5.50;;
56073;SDS011;41950;55.840;37.442;2022-09-14T01:55:41;6.35;;;5.82;;
56073;SDS011;41950;55.840;37.442;2022-09-14T02:00:23;6.07;;;5.47;;
56073;SDS011;41950;55.840;37.442;2022-09-14T02:03:03;5.82;;;5.10;;
56073;SDS011;41950;55.840;37.442;2022-09-14T02:05:44;6.25;;;5.50;;
56073;SDS011;41950;55.840;37.442;2022-09-14T02:08:21;6.90;;;6.20;;
56073;SDS011;41950;55.840;37.442;2022-09-14T02:10:49;6.45;;;5.85;;
56073;SDS011;41950;55.840;37.442;2022-09-14T02:13:14;6.15;;;5.55;;
56073;SDS011;41950;55.840;37.442;2022-09-14T02:15:41;6.22;;;5.63;;
56073;SDS011;41950;55.840;37.442;2022-09-14T02:18:07;5.82;;;5.32;;
56073;SDS011;41950;55.840;37.442;2022-09-14T02:20:36;7.53;;;6.82;;
56073;SDS011;41950;55.840;37.442;2022-09-14T02:23:07;6.30;;;5.70;;
56073;SDS011;41950;55.840;37.442;2022-09-14T02:25:33;5.95;;;5.45;;
56073;SDS011;41950;55.840;37.442;2022-09-14T02:28:01;6.15;;;5.32;;
56073;SDS011;41950;55.840;37.442;2022-09-14T02:30:29;6.93;;;6.32;;
56073;SDS011;41950;55.840;37.442;2022-09-14T02:33:09;7.32;;;6.20;;
56073;SDS011;41950;55.840;37.442;2022-09-14T02:35:50;6.47;;;5.88;;
56073;SDS011;41950;55.840;37.442;2022-09-14T02:38:43;6.20;;;5.60;;
56073;SDS011;41950;55.840;37.442;2022-09-14T02:41:38;6.85;;;6.25;;
56073;SDS011;41950;55.840;37.442;2022-09-14T02:44:31;6.47;;;5.88;;
56073;SDS011;41950;55.840;37.442;2022-09-14T02:47:16;7.25;;;6.55;;
56073;SDS011;41950;55.840;37.442;2022-09-14T02:49:51;8.27;;;7.50;;
56073;SDS011;41950;55.840;37.442;2022-09-14T02:52:32;7.43;;;6.72;;
56073;SDS011;41950;55.840;37.442;2022-09-14T02:55:12;7.05;;;6.35;;
56073;SDS011;41950;55.840;37.442;2022-09-14T03:00:33;7.18;;;6.45;;
56073;SDS011;41950;55.840;37.442;2022-09-14T03:03:05;7.88;;;7.18;;
56073;SDS011;41950;55.840;37.442;2022-09-14T03:05:32;7.75;;;6.95;;
56073;SDS011;41950;55.840;37.442;2022-09-14T03:07:59;7.90;;;7.20;;
56073;SDS011;41950;55.840;37.442;2022-09-14T03:10:25;7.95;;;7.22;;
56073;SDS011;41950;55.840;37.442;2022-09-14T03:12:52;8.80;;;7.93;;
56073;SDS011;41950;55.840;37.442;2022-09-14T03:15:17;7.90;;;7.10;;
56073;SDS011;41950;55.840;37.442;2022-09-14T03:17:46;7.18;;;6.20;;
56073;SDS011;41950;55.840;37.442;2022-09-14T03:20:14;7.95;;;7.15;;
56073;SDS011;41950;55.840;37.442;2022-09-14T03:22:41;7.05;;;6.35;;
56073;SDS011;41950;55.840;37.442;2022-09-14T03:25:07;6.53;;;5.82;;
56073;SDS011;41950;55.840;37.442;2022-09-14T03:27:33;7.55;;;6.78;;
56073;SDS011;41950;55.840;37.442;2022-09-14T03:29:58;7.45;;;6.75;;
56073;SDS011;41950;55.840;37.442;2022-09-14T03:32:24;6.80;;;6.10;;
56073;SDS011;41950;55.840;37.442;2022-09-14T03:34:55;7.60;;;6.90;;
56073;SDS011;41950;55.840;37.442;2022-09-14T03:37:22;7.68;;;6.88;;
56073;SDS011;41950;55.840;37.442;2022-09-14T03:39:48;7.65;;;6.32;;
56073;SDS011;41950;55.840;37.442;2022-09-14T03:42:13;8.00;;;7.28;;
56073;SDS011;41950;55.840;37.442;2022-09-14T03:44:39;7.57;;;6.82;;
56073;SDS011;41950;55.840;37.442;2022-09-14T03:47:05;7.30;;;6.60;;
56073;SDS011;41950;55.840;37.442;2022-09-14T03:49:31;8.07;;;7.28;;
56073;SDS011;41950;55.840;37.442;2022-09-14T03:51:56;7.10;;;6.40;;
56073;SDS011;41950;55.840;37.442;2022-09-14T03:54:22;6.35;;;5.75;;
56073;SDS011;41950;55.840;37.442;2022-09-14T03:56:47;8.45;;;7.65;;
56073;SDS011;41950;55.840;37.442;2022-09-14T03:59:16;6.78;;;6.18;;
56073;SDS011;41950;55.840;37.442;2022-09-14T04:01:42;7.15;;;6.45;;
56073;SDS011;41950;55.840;37.442;2022-09-14T04:04:07;7.93;;;7.22;;
56073;SDS011;41950;55.840;37.442;2022-09-14T04:06:33;9.10;;;8.20;;
56073;SDS011;41950;55.840;37.442;2022-09-14T04:08:59;8.27;;;7.47;;
56073;SDS011;41950;55.840;37.442;2022-09-14T04:11:24;7.28;;;6.53;;
56073;SDS011;41950;55.840;37.442;2022-09-14T04:13:51;8.13;;;7.30;;
56073;SDS011;41950;55.840;37.442;2022-09-14T04:16:17;8.20;;;7.40;;
56073;SDS011;41950;55.840;37.442;2022-09-14T04:18:45;9.32;;;7.82;;
56073;SDS011;41950;55.840;37.442;2022-09-14T04:21:18;8.90;;;8.00;;
56073;SDS011;41950;55.840;37.442;2022-09-14T04:23:46;9.15;;;8.35;;
56073;SDS011;41950;55.840;37.442;2022-09-14T04:26:13;9.68;;;8.60;;
56073;SDS011;41950;55.840;37.442;2022-09-14T04:28:41;8.80;;;8.00;;
56073;SDS011;41950;55.840;37.442;2022-09-14T04:31:08;12.05;;;10.95;;
56073;SDS011;41950;55.840;37.442;2022-09-14T04:33:35;8.80;;;8.00;;
56073;SDS011;41950;55.840;37.442;2022-09-14T04:38:29;10.18;;;9.18;;
56073;SDS011;41950;55.840;37.442;2022-09-14T04:40:56;11.18;;;10.07;;
56073;SDS011;41950;55.840;37.442;2022-09-14T04:43:22;10.48;;;9.38;;
56073;SDS011;41950;55.840;37.442;2022-09-14T04:45:49;11.80;;;10.68;;
56073;SDS011;41950;55.840;37.442;2022-09-14T04:48:14;10.88;;;9.88;;
56073;SDS011;41950;55.840;37.442;2022-09-14T04:50:40;10.98;;;9.95;;
56073;SDS011;41950;55.840;37.442;2022-09-14T04:53:06;11.68;;;10.57;;
56073;SDS011;41950;55.840;37.442;2022-09-14T04:55:31;12.02;;;10.80;;
56073;SDS011;41950;55.840;37.442;2022-09-14T04:57:57;10.70;;;9.70;;
56073;SDS011;41950;55.840;37.442;2022-09-14T05:00:23;11.63;;;10.63;;
56073;SDS011;41950;55.840;37.442;2022-09-14T05:02:48;13.82;;;12.63;;
56073;SDS011;41950;55.840;37.442;2022-09-14T05:05:14;13.77;;;12.50;;
56073;SDS011;41950;55.840;37.442;2022-09-14T05:07:39;12.70;;;11.50;;
56073;SDS011;41950;55.840;37.442;2022-09-14T05:10:05;11.38;;;10.38;;
56073;SDS011;41950;55.840;37.442;2022-09-14T05:12:32;12.60;;;11.50;;
56073;SDS011;41950;55.840;37.442;2022-09-14T05:14:58;12.45;;;11.27;;
56073;SDS011;41950;55.840;37.442;2022-09-14T05:17:24;12.35;;;11.30;;
56073;SDS011;41950;55.840;37.442;2022-09-14T05:19:50;15.30;;;13.90;;
56073;SDS011;41950;55.840;37.442;2022-09-14T05:22:15;16.00;;;14.52;;
56073;SDS011;41950;55.840;37.442;2022-09-14T05:24:41;13.57;;;12.38;;
56073;SDS011;41950;55.840;37.442;2022-09-14T05:27:07;10.57;;;9.60;;
56073;SDS011;41950;55.840;37.442;2022-09-14T05:29:32;11.57;;;10.57;;
56073;SDS011;41950;55.840;37.442;2022-09-14T05:31:58;10.90;;;10.00;;
56073;SDS011;41950;55.840;37.442;2022-09-14T05:34:23;11.95;;;10.85;;
56073;SDS011;41950;55.840;37.442;2022-09-14T05:36:49;12.90;;;11.80;;
56073;SDS011;41950;55.840;37.442;2022-09-14T05:39:15;12.65;;;11.63;;
56073;SDS011;41950;55.840;37.442;2022-09-14T05:41:40;11.40;;;10.40;;
56073;SDS011;41950;55.840;37.442;2022-09-14T05:44:06;11.23;;;10.30;;
56073;SDS011;41950;55.840;37.442;2022-09-14T05:46:32;11.68;;;10.57;;
56073;SDS011;41950;55.840;37.442;2022-09-14T05:48:57;12.98;;;11.77;;
56073;SDS011;41950;55.840;37.442;2022-09-14T05:51:24;12.05;;;10.95;;
56073;SDS011;41950;55.840;37.442;2022-09-14T05:53:54;11.48;;;10.48;;
56073;SDS011;41950;55.840;37.442;2022-09-14T05:56:22;10.75;;;9.80;;
56073;SDS011;41950;55.840;37.442;2022-09-14T05:58:49;11.50;;;10.50;;
56073;SDS011;41950;55.840;37.442;2022-09-14T06:01:17;12.13;;;11.13;;
56073;SDS011;41950;55.840;37.442;2022-09-14T06:03:44;11.45;;;10.45;;
56073;SDS011;41950;55.840;37.442;2022-09-14T06:06:11;12.48;;;11.38;;
56073;SDS011;41950;55.840;37.442;2022-09-14T06:08:39;12.38;;;11.15;;
56073;SDS011;41950;55.840;37.442;2022-09-14T06:11:07;12.80;;;11.70;;
56073;SDS011;41950;55.840;37.442;2022-09-14T06:13:37;12.90;;;11.80;;
56073;SDS011;41950;55.840;37.442;2022-09-14T06:16:04;11.80;;;10.80;;
56073;SDS011;41950;55.840;37.442;2022-09-14T06:18:34;16.33;;;14.80;;
56073;SDS011;41950;55.840;37.442;2022-09-14T06:21:00;17.90;;;16.30;;
56073;SDS011;41950;55.840;37.442;2022-09-14T06:23:28;25.73;;;23.80;;
56073;SDS011;41950;55.840;37.442;2022-09-14T06:25:55;33.78;;;30.90;;
56073;SDS011;41950;55.840;37.442;2022-09-14T06:28:22;21.65;;;19.88;;
56073;SDS011;41950;55.840;37.442;2022-09-14T06:30:48;16.80;;;15.30;;
56073;SDS011;41950;55.840;37.442;2022-09-14T06:33:15;15.40;;;14.00;;
56073;SDS011;41950;55.840;37.442;2022-09-14T06:35:41;14.15;;;12.95;;
56073;SDS011;41950;55.840;37.442;2022-09-14T06:38:07;15.02;;;13.63;;
56073;SDS011;41950;55.840;37.442;2022-09-14T06:40:33;14.02;;;12.73;;
56073;SDS011;41950;55.840;37.442;2022-09-14T06:42:59;15.05;;;13.75;;
56073;SDS011;41950;55.840;37.442;2022-09-14T06:45:29;14.95;;;13.55;;
56073;SDS011;41950;55.840;37.442;2022-09-14T06:47:57;14.77;;;13.43;;
56073;SDS011;41950;55.840;37.442;2022-09-14T06:50:23;14.10;;;12.80;;
56073;SDS011;41950;55.840;37.442;2022-09-14T06:52:49;14.43;;;13.13;;
56073;SDS011;41950;55.840;37.442;2022-09-14T06:55:14;14.48;;;13.07;;
56073;SDS011;41950;55.840;37.442;2022-09-14T06:57:40;13.38;;;12.23;;
56073;SDS011;41950;55.840;37.442;2022-09-14T07:00:06;13.85;;;12.55;;
56073;SDS011;41950;55.840;37.442;2022-09-14T07:02:32;12.10;;;11.00;;
56073;SDS011;41950;55.840;37.442;2022-09-14T07:04:58;12.50;;;11.40;;
56073;SDS011;41950;55.840;37.442;2022-09-14T07:07:24;11.85;;;10.85;;
56073;SDS011;41950;55.840;37.442;2022-09-14T07:09:49;13.88;;;12.57;;
56073;SDS011;41950;55.840;37.442;2022-09-14T07:12:15;10.98;;;9.90;;
56073;SDS011;41950;55.840;37.442;2022-09-14T07:14:40;10.77;;;9.82;;
56073;SDS011;41950;55.840;37.442;2022-09-14T07:17:06;10.05;;;9.05;;
56073;SDS011;41950;55.840;37.442;2022-09-14T07:19:32;11.70;;;10.50;;
56073;SDS011;41950;55.840;37.442;2022-09-14T07:21:57;10.90;;;9.90;;
56073;SDS011;41950;55.840;37.442;2022-09-14T07:24:23;9.88;;;8.98;;
56073;SDS011;41950;55.840;37.442;2022-09-14T07:26:48;8.98;;;8.07;;
56073;SDS011;41950;55.840;37.442;2022-09-14T07:29:15;9.32;;;8.05;;
56073;SDS011;41950;55.840;37.442;2022-09-14T07:31:46;9.38;;;8.52;;
56073;SDS011;41950;55.840;37.442;2022-09-14T07:34:17;8.32;;;7.50;;
56073;SDS011;41950;55.840;37.442;2022-09-14T07:36:43;8.10;;;7.30;;
56073;SDS011;41950;55.840;37.442;2022-09-14T07:39:10;8.38;;;7.57;;
56073;SDS011;41950;55.840;37.442;2022-09-14T07:41:37;8.70;;;7.90;;
56073;SDS011;41950;55.840;37.442;2022-09-14T07:44:04;8.10;;;7.30;;
56073;SDS011;41950;55.840;37.442;2022-09-14T07:46:35;7.75;;;6.93;;
56073;SDS011;41950;55.840;37.442;2022-09-14T07:49:05;9.10;;;8.23;;
56073;SDS011;41950;55.840;37.442;2022-09-14T07:51:32;9.00;;;8.20;;
56073;SDS011;41950;55.840;37.442;2022-09-14T07:53:59;9.32;;;8.40;;
56073;SDS011;41950;55.840;37.442;2022-09-14T07:56:26;11.07;;;9.90;;
56073;SDS011;41950;55.840;37.442;2022-09-14T07:58:52;10.95;;;9.85;;
56073;SDS011;41950;55.840;37.442;2022-09-14T08:01:22;10.60;;;9.70;;
56073;SDS011;41950;55.840;37.442;2022-09-14T08:03:49;10.07;;;8.70;;
56073;SDS011;41950;55.840;37.442;2022-09-14T08:06:16;10.18;;;9.07;;
56073;SDS011;41950;55.840;37.442;2022-09-14T08:08:47;10.77;;;9.75;;
56073;SDS011;41950;55.840;37.442;2022-09-14T08:13:49;11.35;;;10.02;;
56073;SDS011;41950;55.840;37.442;2022-09-14T08:16:16;11.90;;;10.77;;
56073;SDS011;41950;55.840;37.442;2022-09-14T08:18:43;13.55;;;12.25;;
56073;SDS011;41950;55.840;37.442;2022-09-14T08:21:13;14.85;;;13.20;;
56073;SDS011;41950;55.840;37.442;2022-09-14T08:23:41;14.15;;;12.75;;
56073;SDS011;41950;55.840;37.442;2022-09-14T08:26:11;14.07;;;12.60;;
56073;SDS011;41950;55.840;37.442;2022-09-14T08:28:45;14.60;;;13.30;;
56073;SDS011;41950;55.840;37.442;2022-09-14T08:31:12;13.52;;;12.23;;
56073;SDS011;41950;55.840;37.442;2022-09-14T08:33:42;15.00;;;13.50;;
56073;SDS011;41950;55.840;37.442;2022-09-14T08:36:11;13.70;;;12.30;;
56073;SDS011;41950;55.840;37.442;2022-09-14T08:38:39;13.30;;;12.10;;
56073;SDS011;41950;55.840;37.442;2022-09-14T08:43:42;13.02;;;11.80;;
56073;SDS011;41950;55.840;37.442;2022-09-14T08:46:11;13.43;;;12.20;;
56073;SDS011;41950;55.840;37.442;2022-09-14T08:48:46;12.80;;;11.60;;
56073;SDS011;41950;55.840;37.442;2022-09-14T08:51:13;13.13;;;11.90;;
56073;SDS011;41950;55.840;37.442;2022-09-14T08:53:40;11.98;;;10.80;;
56073;SDS011;41950;55.840;37.442;2022-09-14T08:56:15;13.07;;;11.82;;
56073;SDS011;41950;55.840;37.442;2022-09-14T09:04:32;12.63;;;11.43;;
56073;SDS011;41950;55.840;37.442;2022-09-14T09:09:49;12.30;;;11.10;;
56073;SDS011;41950;55.840;37.442;2022-09-14T09:12:17;11.82;;;10.63;;
56073;SDS011;41950;55.840;37.442;2022-09-14T09:17:30;9.98;;;8.98;;
56073;SDS011;41950;55.840;37.442;2022-09-14T09:20:26;9.70;;;8.70;;
56073;SDS011;41950;55.840;37.442;2022-09-14T09:23:04;10.07;;;9.07;;
56073;SDS011;41950;55.840;37.442;2022-09-14T09:25:59;12.52;;;9.32;;
56073;SDS011;41950;55.840;37.442;2022-09-14T09:28:28;9.45;;;8.10;;
56073;SDS011;41950;55.840;37.442;2022-09-14T09:30:56;10.05;;;9.10;;
56073;SDS011;41950;55.840;37.442;2022-09-14T09:33:25;8.02;;;7.30;;
56073;SDS011;41950;55.840;37.442;2022-09-14T09:35:52;7.72;;;6.97;;
56073;SDS011;41950;55.840;37.442;2022-09-14T09:38:20;9.25;;;8.35;;
56073;SDS011;41950;55.840;37.442;2022-09-14T09:41:06;11.27;;;10.18;;
56073;SDS011;41950;55.840;37.442;2022-09-14T09:44:06;12.23;;;10.98;;
56073;SDS011;41950;55.840;37.442;2022-09-14T09:49:37;12.65;;;11.48;;
56073;SDS011;41950;55.840;37.442;2022-09-14T09:52:08;11.05;;;9.90;;
56073;SDS011;41950;55.840;37.442;2022-09-14T09:54:36;9.55;;;8.60;;
56073;SDS011;41950;55.840;37.442;2022-09-14T09:57:05;9.95;;;8.95;;
56073;SDS011;41950;55.840;37.442;2022-09-14T09:59:43;10.18;;;9.20;;
56073;SDS011;41950;55.840;37.442;2022-09-14T10:02:27;9.73;;;8.35;;
56073;SDS011;41950;55.840;37.442;2022-09-14T10:05:01;9.98;;;8.32;;
56073;SDS011;41950;55.840;37.442;2022-09-14T10:07:33;8.95;;;8.05;;
56073;SDS011;41950;55.840;37.442;2022-09-14T10:12:30;9.20;;;8.30;;
56073;SDS011;41950;55.840;37.442;2022-09-14T10:18:29;8.85;;;7.97;;
56073;SDS011;41950;55.840;37.442;2022-09-14T10:20:41;8.45;;;7.20;;
56073;SDS011;41950;55.840;37.442;2022-09-14T10:25:48;8.35;;;7.40;;
56073;SDS011;41950;55.840;37.442;2022-09-14T10:28:22;10.30;;;9.10;;
56073;SDS011;41950;55.840;37.442;2022-09-14T10:31:05;10.95;;;9.95;;
56073;SDS011;41950;55.840;37.442;2022-09-14T10:33:33;10.73;;;9.73;;
56073;SDS011;41950;55.840;37.442;2022-09-14T10:53:15;8.30;;;6.20;;
56073;SDS011;41950;55.840;37.442;2022-09-14T11:01:17;6.38;;;5.75;;
56073;SDS011;41950;55.840;37.442;2022-09-14T11:07:27;7.28;;;6.57;;
56073;SDS011;41950;55.840;37.442;2022-09-14T11:10:13;6.85;;;6.10;;
56073;SDS011;41950;55.840;37.442;2022-09-14T11:12:54;8.00;;;6.57;;
56073;SDS011;41950;55.840;37.442;2022-09-14T11:18:43;7.97;;;7.07;;
56073;SDS011;41950;55.840;37.442;2022-09-14T11:23:56;8.25;;;7.35;;
56073;SDS011;41950;55.840;37.442;2022-09-14T11:27:03;7.57;;;6.78;;
56073;SDS011;41950;55.840;37.442;2022-09-14T11:29:37;7.38;;;6.68;;
56073;SDS011;41950;55.840;37.442;2022-09-14T11:32:13;7.78;;;6.97;;
56073;SDS011;41950;55.840;37.442;2022-09-14T11:35:03;7.63;;;5.90;;
56073;SDS011;41950;55.840;37.442;2022-09-14T11:40:09;6.00;;;5.38;;
56073;SDS011;41950;55.840;37.442;2022-09-14T11:45:45;6.95;;;5.63;;
56073;SDS011;41950;55.840;37.442;2022-09-14T11:48:14;8.25;;;7.35;;
56073;SDS011;41950;55.840;37.442;2022-09-14T11:50:49;8.30;;;6.72;;
56073;SDS011;41950;55.840;37.442;2022-09-14T11:53:21;6.43;;;5.80;;
56073;SDS011;41950;55.840;37.442;2022-09-14T11:55:49;6.70;;;6.00;;
56073;SDS011;41950;55.840;37.442;2022-09-14T11:58:17;6.95;;;5.70;;
56073;SDS011;41950;55.840;37.442;2022-09-14T12:03:20;7.65;;;6.53;;
56073;SDS011;41950;55.840;37.442;2022-09-14T12:05:48;7.13;;;6.28;;
56073;SDS011;41950;55.840;37.442;2022-09-14T12:13:33;8.80;;;6.80;;
56073;SDS011;41950;55.840;37.442;2022-09-14T12:16:04;8.25;;;6.97;;
56073;SDS011;41950;55.840;37.442;2022-09-14T12:18:34;10.75;;;6.53;;
56073;SDS011;41950;55.840;37.442;2022-09-14T12:23:46;8.10;;;7.30;;
56073;SDS011;41950;55.840;37.442;2022-09-14T12:28:43;9.63;;;7.43;;
56073;SDS011;41950;55.840;37.442;2022-09-14T12:44:30;7.70;;;6.90;;
56073;SDS011;41950;55.840;37.442;2022-09-14T12:46:57;8.23;;;7.43;;
56073;SDS011;41950;55.840;37.442;2022-09-14T12:49:43;8.13;;;6.03;;
56073;SDS011;41950;55.840;37.442;2022-09-14T12:52:12;8.73;;;6.50;;
56073;SDS011;41950;55.840;37.442;2022-09-14T12:54:54;7.65;;;6.85;;
56073;SDS011;41950;55.840;37.442;2022-09-14T12:57:42;8.18;;;6.97;;
56073;SDS011;41950;55.840;37.442;2022-09-14T13:00:27;6.78;;;6.07;;
56073;SDS011;41950;55.840;37.442;2022-09-14T13:05:51;6.18;;;5.57;;
56073;SDS011;41950;55.840;37.442;2022-09-14T13:08:19;6.38;;;5.78;;
56073;SDS011;41950;55.840;37.442;2022-09-14T13:10:48;7.55;;;5.38;;
56073;SDS011;41950;55.840;37.442;2022-09-14T13:13:26;7.18;;;5.95;;
56073;SDS011;41950;55.840;37.442;2022-09-14T13:16:00;8.30;;;6.68;;
56073;SDS011;41950;55.840;37.442;2022-09-14T13:18:30;8.27;;;6.68;;
56073;SDS011;41950;55.840;37.442;2022-09-14T13:21:40;9.05;;;6.22;;
56073;SDS011;41950;55.840;37.442;2022-09-14T13:23:49;6.70;;;6.00;;
56073;SDS011;41950;55.840;37.442;2022-09-14T13:28:45;7.03;;;6.00;;
56073;SDS011;41950;55.840;37.442;2022-09-14T13:31:14;7.30;;;6.40;;
56073;SDS011;41950;55.840;37.442;2022-09-14T13:33:47;7.22;;;6.25;;
56073;SDS011;41950;55.840;37.442;2022-09-14T13:36:16;8.27;;;6.20;;
56073;SDS011;41950;55.840;37.442;2022-09-14T13:38:44;7.65;;;6.32;;
56073;SDS011;41950;55.840;37.442;2022-09-14T13:41:11;8.23;;;6.30;;
56073;SDS011;41950;55.840;37.442;2022-09-14T13:43:40;8.32;;;6.47;;
56073;SDS011;41950;55.840;37.442;2022-09-14T13:46:06;9.07;;;6.70;;
56073;SDS011;41950;55.840;37.442;2022-09-14T13:48:35;7.68;;;6.88;;
56073;SDS011;41950;55.840;37.442;2022-09-14T13:51:04;7.75;;;6.10;;
56073;SDS011;41950;55.840;37.442;2022-09-14T14:01:53;10.63;;;6.63;;
56073;SDS011;41950;55.840;37.442;2022-09-14T14:09:45;8.75;;;6.28;;
56073;SDS011;41950;55.840;37.442;2022-09-14T14:14:52;9.20;;;7.50;;
56073;SDS011;41950;55.840;37.442;2022-09-14T14:19:58;10.10;;;7.75;;
56073;SDS011;41950;55.840;37.442;2022-09-14T14:22:54;10.98;;;7.53;;
56073;SDS011;41950;55.840;37.442;2022-09-14T14:25:30;8.90;;;6.88;;
56073;SDS011;41950;55.840;37.442;2022-09-14T14:28:01;9.75;;;7.65;;
56073;SDS011;41950;55.840;37.442;2022-09-14T14:30:57;10.63;;;7.55;;
56073;SDS011;41950;55.840;37.442;2022-09-14T14:33:26;8.25;;;7.35;;
56073;SDS011;41950;55.840;37.442;2022-09-14T14:35:53;9.63;;;7.28;;
56073;SDS011;41950;55.840;37.442;2022-09-14T14:38:21;9.65;;;7.45;;
56073;SDS011;41950;55.840;37.442;2022-09-14T14:40:48;8.52;;;7.32;;
56073;SDS011;41950;55.840;37.442;2022-09-14T14:43:16;9.35;;;7.70;;
56073;SDS011;41950;55.840;37.442;2022-09-14T14:45:43;9.13;;;7.30;;
56073;SDS011;41950;55.840;37.442;2022-09-14T14:48:09;9.00;;;7.47;;
56073;SDS011;41950;55.840;37.442;2022-09-14T14:50:36;9.68;;;8.68;;
56073;SDS011;41950;55.840;37.442;2022-09-14T14:53:02;13.50;;;9.30;;
56073;SDS011;41950;55.840;37.442;2022-09-14T14:55:29;10.00;;;8.50;;
56073;SDS011;41950;55.840;37.442;2022-09-14T14:57:59;10.55;;;9.13;;
56073;SDS011;41950;55.840;37.442;2022-09-14T15:00:28;11.98;;;9.13;;
56073;SDS011;41950;55.840;37.442;2022-09-14T15:02:56;11.00;;;9.65;;
56073;SDS011;41950;55.840;37.442;2022-09-14T15:05:23;11.50;;;9.45;;
56073;SDS011;41950;55.840;37.442;2022-09-14T15:07:49;13.93;;;10.88;;
56073;SDS011;41950;55.840;37.442;2022-09-14T15:10:17;14.20;;;11.25;;
56073;SDS011;41950;55.840;37.442;2022-09-14T15:12:43;12.13;;;10.68;;
56073;SDS011;41950;55.840;37.442;2022-09-14T15:15:13;15.00;;;11.27;;
56073;SDS011;41950;55.840;37.442;2022-09-14T15:17:41;12.40;;;10.43;;
56073;SDS011;41950;55.840;37.442;2022-09-14T15:20:07;12.50;;;11.07;;
56073;SDS011;41950;55.840;37.442;2022-09-14T15:22:34;14.60;;;11.98;;
56073;SDS011;41950;55.840;37.442;2022-09-14T15:25:00;15.25;;;11.57;;
56073;SDS011;41950;55.840;37.442;2022-09-14T15:27:28;16.52;;;11.95;;
56073;SDS011;41950;55.840;37.442;2022-09-14T15:29:54;14.90;;;12.68;;
56073;SDS011;41950;55.840;37.442;2022-09-14T15:32:26;14.70;;;12.75;;
56073;SDS011;41950;55.840;37.442;2022-09-14T15:34:56;13.13;;;11.73;;
56073;SDS011;41950;55.840;37.442;2022-09-14T15:37:22;13.50;;;11.85;;
56073;SDS011;41950;55.840;37.442;2022-09-14T15:39:48;20.25;;;11.45;;
56073;SDS011;41950;55.840;37.442;2022-09-14T15:42:15;15.27;;;11.70;;
56073;SDS011;41950;55.840;37.442;2022-09-14T15:44:41;14.13;;;11.48;;
56073;SDS011;41950;55.840;37.442;2022-09-14T15:47:08;13.13;;;11.30;;
56073;SDS011;41950;55.840;37.442;2022-09-14T15:49:34;15.70;;;12.88;;
56073;SDS011;41950;55.840;37.442;2022-09-14T15:52:00;13.85;;;11.98;;
56073;SDS011;41950;55.840;37.442;2022-09-14T15:54:30;15.70;;;12.35;;
56073;SDS011;41950;55.840;37.442;2022-09-14T15:56:57;12.87;;;11.53;;
56073;SDS011;41950;55.840;37.442;2022-09-14T15:59:26;12.30;;;10.82;;
56073;SDS011;41950;55.840;37.442;2022-09-14T16:01:53;13.77;;;10.95;;
56073;SDS011;41950;55.840;37.442;2022-09-14T16:04:19;14.27;;;11.18;;
56073;SDS011;41950;55.840;37.442;2022-09-14T16:06:44;14.90;;;11.52;;
56073;SDS011;41950;55.840;37.442;2022-09-14T16:09:14;11.27;;;10.07;;
56073;SDS011;41950;55.840;37.442;2022-09-14T16:11:41;11.77;;;9.18;;
56073;SDS011;41950;55.840;37.442;2022-09-14T16:14:07;13.00;;;9.90;;
56073;SDS011;41950;55.840;37.442;2022-09-14T16:16:34;13.55;;;9.60;;
56073;SDS011;41950;55.840;37.442;2022-09-14T16:19:08;12.68;;;10.27;;
56073;SDS011;41950;55.840;37.442;2022-09-14T16:21:37;13.13;;;9.70;;
56073;SDS011;41950;55.840;37.442;2022-09-14T16:24:05;12.57;;;10.18;;
56073;SDS011;41950;55.840;37.442;2022-09-14T16:26:33;14.77;;;13.27;;
56073;SDS011;41950;55.840;37.442;2022-09-14T16:29:00;14.82;;;13.23;;
56073;SDS011;41950;55.840;37.442;2022-09-14T16:31:27;14.70;;;13.23;;
56073;SDS011;41950;55.840;37.442;2022-09-14T16:33:56;13.40;;;12.05;;
56073;SDS011;41950;55.840;37.442;2022-09-14T16:36:24;14.70;;;12.02;;
56073;SDS011;41950;55.840;37.442;2022-09-14T16:38:54;13.60;;;12.07;;
56073;SDS011;41950;55.840;37.442;2022-09-14T16:41:20;15.68;;;12.27;;
56073;SDS011;41950;55.840;37.442;2022-09-14T16:43:46;14.02;;;12.50;;
56073;SDS011;41950;55.840;37.442;2022-09-14T16:46:13;14.07;;;10.65;;
56073;SDS011;41950;55.840;37.442;2022-09-14T16:48:41;14.13;;;12.73;;
56073;SDS011;41950;55.840;37.442;2022-09-14T16:51:09;15.15;;;11.60;;
56073;SDS011;41950;55.840;37.442;2022-09-14T16:53:36;15.85;;;11.73;;
56073;SDS011;41950;55.840;37.442;2022-09-14T16:56:07;13.73;;;11.55;;
56073;SDS011;41950;55.840;37.442;2022-09-14T16:58:34;13.27;;;11.93;;